sensor_id;sensor_type;location;lat;lon;timestamp;P1;durP1;ratioP1;P2;durP2;ratioP2
24483;SDS011;12643;51.620;7.548;2023-07-09T00:01:14;9.73;;;6.75;;
24483;SDS011;12643;51.620;7.548;2023-07-09T00:03:44;8.48;;;6.60;;
24483;SDS011;12643;51.620;7.548;2023-07-09T00:06:13;9.57;;;6.65;;
24483;SDS011;12643;51.620;7.548;2023-07-09T00:08:42;11.52;;;7.18;;
24483;SDS011;12643;51.620;7.548;2023-07-09T00:11:12;8.18;;;6.78;;
24483;SDS011;12643;51.620;7.548;2023-07-09T00:13:40;9.32;;;6.60;;
24483;SDS011;12643;51.620;7.548;2023-07-09T00:16:10;6.82;;;6.10;;
24483;SDS011;12643;51.620;7.548;2023-07-09T00:18:42;9.02;;;6.22;;
24483;SDS011;12643;51.620;7.548;2023-07-09T00:21:10;8.10;;;6.18;;
24483;SDS011;12643;51.620;7.548;2023-07-09T00:23:38;7.80;;;6.75;;
24483;SDS011;12643;51.620;7.548;2023-07-09T00:26:08;7.93;;;7.13;;
24483;SDS011;12643;51.620;7.548;2023-07-09T00:28:36;7.90;;;6.60;;
24483;SDS011;12643;51.620;7.548;2023-07-09T00:31:04;15.32;;;6.70;;
24483;SDS011;12643;51.620;7.548;2023-07-09T00:33:33;9.30;;;6.95;;
24483;SDS011;12643;51.620;7.548;2023-07-09T00:36:01;8.85;;;6.55;;
24483;SDS011;12643;51.620;7.548;2023-07-09T00:38:33;6.88;;;6.15;;
24483;SDS011;12643;51.620;7.548;2023-07-09T00:43:32;8.40;;;6.10;;
24483;SDS011;12643;51.620;7.548;2023-07-09T00:46:14;8.02;;;7.03;;
24483;SDS011;12643;51.620;7.548;2023-07-09T00:49:05;10.20;;;6.60;;
24483;SDS011;12643;51.620;7.548;2023-07-09T00:51:37;8.65;;;6.50;;
24483;SDS011;12643;51.620;7.548;2023-07-09T00:54:08;7.45;;;6.63;;
24483;SDS011;12643;51.620;7.548;2023-07-09T00:56:42;11.90;;;6.32;;
24483;SDS011;12643;51.620;7.548;2023-07-09T00:59:13;7.18;;;6.10;;
24483;SDS011;12643;51.620;7.548;2023-07-09T01:01:43;10.40;;;6.50;;
24483;SDS011;12643;51.620;7.548;2023-07-09T01:04:14;8.02;;;7.10;;
24483;SDS011;12643;51.620;7.548;2023-07-09T01:06:44;9.45;;;7.03;;
24483;SDS011;12643;51.620;7.548;2023-07-09T01:09:15;7.80;;;6.72;;
24483;SDS011;12643;51.620;7.548;2023-07-09T01:11:43;8.85;;;7.20;;
24483;SDS011;12643;51.620;7.548;2023-07-09T01:14:12;9.73;;;7.18;;
24483;SDS011;12643;51.620;7.548;2023-07-09T01:16:47;10.95;;;6.78;;
24483;SDS011;12643;51.620;7.548;2023-07-09T01:19:22;8.77;;;6.68;;
24483;SDS011;12643;51.620;7.548;2023-07-09T01:21:53;9.38;;;7.30;;
24483;SDS011;12643;51.620;7.548;2023-07-09T01:27:21;11.15;;;7.15;;
24483;SDS011;12643;51.620;7.548;2023-07-09T01:29:52;9.15;;;6.22;;
24483;SDS011;12643;51.620;7.548;2023-07-09T01:32:21;9.15;;;7.57;;
24483;SDS011;12643;51.620;7.548;2023-07-09T01:34:49;11.60;;;8.23;;
24483;SDS011;12643;51.620;7.548;2023-07-09T01:37:21;8.32;;;6.70;;
24483;SDS011;12643;51.620;7.548;2023-07-09T01:39:51;8.00;;;6.07;;
24483;SDS011;12643;51.620;7.548;2023-07-09T01:42:20;9.95;;;7.10;;
24483;SDS011;12643;51.620;7.548;2023-07-09T01:44:50;8.20;;;6.33;;
24483;SDS011;12643;51.620;7.548;2023-07-09T01:47:19;10.32;;;7.85;;
24483;SDS011;12643;51.620;7.548;2023-07-09T01:49:49;10.93;;;7.18;;
24483;SDS011;12643;51.620;7.548;2023-07-09T01:52:21;8.63;;;7.25;;
24483;SDS011;12643;51.620;7.548;2023-07-09T01:54:48;11.63;;;7.30;;
24483;SDS011;12643;51.620;7.548;2023-07-09T01:57:17;10.57;;;7.50;;
24483;SDS011;12643;51.620;7.548;2023-07-09T01:59:48;10.63;;;7.18;;
24483;SDS011;12643;51.620;7.548;2023-07-09T02:02:18;10.95;;;7.55;;
24483;SDS011;12643;51.620;7.548;2023-07-09T02:04:46;12.52;;;8.68;;
24483;SDS011;12643;51.620;7.548;2023-07-09T02:07:15;10.88;;;8.23;;
24483;SDS011;12643;51.620;7.548;2023-07-09T02:09:44;8.95;;;7.10;;
24483;SDS011;12643;51.620;7.548;2023-07-09T02:12:12;11.02;;;8.23;;
24483;SDS011;12643;51.620;7.548;2023-07-09T02:14:41;9.20;;;6.95;;
24483;SDS011;12643;51.620;7.548;2023-07-09T02:17:10;10.15;;;6.60;;
24483;SDS011;12643;51.620;7.548;2023-07-09T02:19:39;10.55;;;7.25;;
24483;SDS011;12643;51.620;7.548;2023-07-09T02:22:07;10.00;;;7.40;;
24483;SDS011;12643;51.620;7.548;2023-07-09T02:24:36;9.25;;;7.47;;
24483;SDS011;12643;51.620;7.548;2023-07-09T02:27:06;9.25;;;7.32;;
24483;SDS011;12643;51.620;7.548;2023-07-09T02:29:36;9.98;;;7.03;;
24483;SDS011;12643;51.620;7.548;2023-07-09T02:32:04;7.82;;;7.00;;
24483;SDS011;12643;51.620;7.548;2023-07-09T02:34:32;13.57;;;7.45;;
24483;SDS011;12643;51.620;7.548;2023-07-09T02:37:00;10.65;;;6.95;;
24483;SDS011;12643;51.620;7.548;2023-07-09T02:39:28;11.60;;;6.70;;
24483;SDS011;12643;51.620;7.548;2023-07-09T02:41:56;10.93;;;7.13;;
24483;SDS011;12643;51.620;7.548;2023-07-09T02:44:25;8.73;;;7.15;;
24483;SDS011;12643;51.620;7.548;2023-07-09T02:46:53;7.43;;;6.22;;
24483;SDS011;12643;51.620;7.548;2023-07-09T02:49:22;9.00;;;6.72;;
24483;SDS011;12643;51.620;7.548;2023-07-09T02:51:49;8.60;;;6.50;;
24483;SDS011;12643;51.620;7.548;2023-07-09T02:54:17;8.85;;;7.28;;
24483;SDS011;12643;51.620;7.548;2023-07-09T02:56:45;7.95;;;6.60;;
24483;SDS011;12643;51.620;7.548;2023-07-09T02:59:13;8.27;;;6.80;;
24483;SDS011;12643;51.620;7.548;2023-07-09T03:01:42;10.73;;;7.13;;
24483;SDS011;12643;51.620;7.548;2023-07-09T03:04:10;9.68;;;7.00;;
24483;SDS011;12643;51.620;7.548;2023-07-09T03:06:38;9.93;;;7.13;;
24483;SDS011;12643;51.620;7.548;2023-07-09T03:09:06;9.48;;;7.78;;
24483;SDS011;12643;51.620;7.548;2023-07-09T03:11:34;7.88;;;6.97;;
24483;SDS011;12643;51.620;7.548;2023-07-09T03:14:03;9.40;;;6.88;;
24483;SDS011;12643;51.620;7.548;2023-07-09T03:16:32;11.85;;;7.47;;
24483;SDS011;12643;51.620;7.548;2023-07-09T03:19:02;9.98;;;7.43;;
24483;SDS011;12643;51.620;7.548;2023-07-09T03:21:30;10.18;;;7.63;;
24483;SDS011;12643;51.620;7.548;2023-07-09T03:23:58;9.52;;;8.00;;
24483;SDS011;12643;51.620;7.548;2023-07-09T03:26:26;10.25;;;7.57;;
24483;SDS011;12643;51.620;7.548;2023-07-09T03:28:54;10.00;;;7.95;;
24483;SDS011;12643;51.620;7.548;2023-07-09T03:31:22;9.85;;;7.05;;
24483;SDS011;12643;51.620;7.548;2023-07-09T03:33:50;10.57;;;7.05;;
24483;SDS011;12643;51.620;7.548;2023-07-09T03:36:20;10.85;;;7.10;;
24483;SDS011;12643;51.620;7.548;2023-07-09T03:38:48;13.75;;;7.93;;
24483;SDS011;12643;51.620;7.548;2023-07-09T03:41:16;12.98;;;7.38;;
24483;SDS011;12643;51.620;7.548;2023-07-09T03:43:44;10.18;;;6.70;;
24483;SDS011;12643;51.620;7.548;2023-07-09T03:46:12;8.52;;;6.43;;
24483;SDS011;12643;51.620;7.548;2023-07-09T03:48:40;7.25;;;6.38;;
24483;SDS011;12643;51.620;7.548;2023-07-09T03:51:07;8.85;;;6.82;;
24483;SDS011;12643;51.620;7.548;2023-07-09T03:53:37;10.82;;;7.10;;
24483;SDS011;12643;51.620;7.548;2023-07-09T03:56:04;11.73;;;7.00;;
24483;SDS011;12643;51.620;7.548;2023-07-09T03:58:32;7.95;;;6.75;;
24483;SDS011;12643;51.620;7.548;2023-07-09T04:01:00;11.27;;;7.53;;
24483;SDS011;12643;51.620;7.548;2023-07-09T04:03:28;10.43;;;7.15;;
24483;SDS011;12643;51.620;7.548;2023-07-09T04:05:55;12.00;;;7.60;;
24483;SDS011;12643;51.620;7.548;2023-07-09T04:08:23;8.80;;;6.85;;
24483;SDS011;12643;51.620;7.548;2023-07-09T04:10:54;8.27;;;7.05;;
24483;SDS011;12643;51.620;7.548;2023-07-09T04:13:25;8.40;;;7.00;;
24483;SDS011;12643;51.620;7.548;2023-07-09T04:15:53;10.23;;;7.43;;
24483;SDS011;12643;51.620;7.548;2023-07-09T04:18:21;10.02;;;6.53;;
24483;SDS011;12643;51.620;7.548;2023-07-09T04:20:49;10.13;;;7.40;;
24483;SDS011;12643;51.620;7.548;2023-07-09T04:23:18;10.45;;;7.00;;
24483;SDS011;12643;51.620;7.548;2023-07-09T04:25:46;9.52;;;7.38;;
24483;SDS011;12643;51.620;7.548;2023-07-09T04:28:15;12.02;;;7.10;;
24483;SDS011;12643;51.620;7.548;2023-07-09T04:30:46;11.25;;;6.50;;
24483;SDS011;12643;51.620;7.548;2023-07-09T04:33:16;8.10;;;6.63;;
24483;SDS011;12643;51.620;7.548;2023-07-09T04:35:44;11.23;;;7.43;;
24483;SDS011;12643;51.620;7.548;2023-07-09T04:38:12;14.15;;;7.65;;
24483;SDS011;12643;51.620;7.548;2023-07-09T04:40:41;9.82;;;7.45;;
24483;SDS011;12643;51.620;7.548;2023-07-09T04:43:08;8.73;;;7.82;;
24483;SDS011;12643;51.620;7.548;2023-07-09T04:45:37;10.50;;;6.82;;
24483;SDS011;12643;51.620;7.548;2023-07-09T04:48:05;9.70;;;7.07;;
24483;SDS011;12643;51.620;7.548;2023-07-09T04:50:33;9.40;;;7.25;;
24483;SDS011;12643;51.620;7.548;2023-07-09T04:53:01;8.18;;;6.80;;
24483;SDS011;12643;51.620;7.548;2023-07-09T04:55:29;12.32;;;7.07;;
24483;SDS011;12643;51.620;7.548;2023-07-09T04:57:57;12.15;;;8.05;;
24483;SDS011;12643;51.620;7.548;2023-07-09T05:00:25;7.82;;;6.82;;
24483;SDS011;12643;51.620;7.548;2023-07-09T05:02:54;15.25;;;7.47;;
24483;SDS011;12643;51.620;7.548;2023-07-09T05:05:22;9.18;;;6.47;;
24483;SDS011;12643;51.620;7.548;2023-07-09T05:07:49;13.05;;;7.22;;
24483;SDS011;12643;51.620;7.548;2023-07-09T05:10:17;7.55;;;6.70;;
24483;SDS011;12643;51.620;7.548;2023-07-09T05:12:49;9.13;;;7.28;;
24483;SDS011;12643;51.620;7.548;2023-07-09T05:15:17;8.70;;;6.93;;
24483;SDS011;12643;51.620;7.548;2023-07-09T05:17:45;7.47;;;6.63;;
24483;SDS011;12643;51.620;7.548;2023-07-09T05:20:15;7.55;;;6.68;;
24483;SDS011;12643;51.620;7.548;2023-07-09T05:22:43;10.10;;;6.82;;
24483;SDS011;12643;51.620;7.548;2023-07-09T05:25:10;8.45;;;7.28;;
24483;SDS011;12643;51.620;7.548;2023-07-09T05:27:38;11.05;;;7.60;;
24483;SDS011;12643;51.620;7.548;2023-07-09T05:30:07;8.95;;;6.90;;
24483;SDS011;12643;51.620;7.548;2023-07-09T05:32:36;9.30;;;7.38;;
24483;SDS011;12643;51.620;7.548;2023-07-09T05:35:05;8.27;;;6.30;;
24483;SDS011;12643;51.620;7.548;2023-07-09T05:37:35;8.85;;;6.95;;
24483;SDS011;12643;51.620;7.548;2023-07-09T05:40:03;9.27;;;6.60;;
24483;SDS011;12643;51.620;7.548;2023-07-09T05:42:32;10.15;;;6.85;;
24483;SDS011;12643;51.620;7.548;2023-07-09T05:45:00;11.80;;;6.30;;
24483;SDS011;12643;51.620;7.548;2023-07-09T05:47:28;8.10;;;6.13;;
24483;SDS011;12643;51.620;7.548;2023-07-09T05:49:56;8.13;;;5.68;;
24483;SDS011;12643;51.620;7.548;2023-07-09T05:52:23;10.57;;;6.55;;
24483;SDS011;12643;51.620;7.548;2023-07-09T05:54:52;14.32;;;6.38;;
24483;SDS011;12643;51.620;7.548;2023-07-09T05:57:20;9.95;;;6.50;;
24483;SDS011;12643;51.620;7.548;2023-07-09T05:59:48;12.85;;;6.60;;
24483;SDS011;12643;51.620;7.548;2023-07-09T06:02:17;8.43;;;6.65;;
24483;SDS011;12643;51.620;7.548;2023-07-09T06:04:45;8.63;;;5.07;;
24483;SDS011;12643;51.620;7.548;2023-07-09T06:07:15;6.25;;;5.65;;
24483;SDS011;12643;51.620;7.548;2023-07-09T06:09:44;7.15;;;5.53;;
24483;SDS011;12643;51.620;7.548;2023-07-09T06:12:14;11.60;;;6.40;;
24483;SDS011;12643;51.620;7.548;2023-07-09T06:14:44;11.82;;;6.60;;
24483;SDS011;12643;51.620;7.548;2023-07-09T06:17:12;9.50;;;5.57;;
24483;SDS011;12643;51.620;7.548;2023-07-09T06:19:40;9.35;;;6.13;;
24483;SDS011;12643;51.620;7.548;2023-07-09T06:22:08;7.00;;;5.30;;
24483;SDS011;12643;51.620;7.548;2023-07-09T06:24:36;6.40;;;4.90;;
24483;SDS011;12643;51.620;7.548;2023-07-09T06:27:04;10.27;;;6.07;;
24483;SDS011;12643;51.620;7.548;2023-07-09T06:29:33;8.75;;;5.93;;
24483;SDS011;12643;51.620;7.548;2023-07-09T06:32:01;7.38;;;5.55;;
24483;SDS011;12643;51.620;7.548;2023-07-09T06:34:29;12.68;;;6.55;;
24483;SDS011;12643;51.620;7.548;2023-07-09T06:36:57;8.27;;;6.13;;
24483;SDS011;12643;51.620;7.548;2023-07-09T06:39:25;7.15;;;5.88;;
24483;SDS011;12643;51.620;7.548;2023-07-09T06:41:53;6.53;;;5.22;;
24483;SDS011;12643;51.620;7.548;2023-07-09T06:44:21;7.32;;;5.60;;
24483;SDS011;12643;51.620;7.548;2023-07-09T06:46:52;7.88;;;6.07;;
24483;SDS011;12643;51.620;7.548;2023-07-09T06:49:20;8.25;;;6.40;;
24483;SDS011;12643;51.620;7.548;2023-07-09T06:51:48;8.45;;;5.90;;
24483;SDS011;12643;51.620;7.548;2023-07-09T06:54:15;9.43;;;6.10;;
24483;SDS011;12643;51.620;7.548;2023-07-09T06:56:44;10.60;;;5.85;;
24483;SDS011;12643;51.620;7.548;2023-07-09T06:59:13;7.05;;;5.55;;
24483;SDS011;12643;51.620;7.548;2023-07-09T07:01:41;8.73;;;5.30;;
24483;SDS011;12643;51.620;7.548;2023-07-09T07:04:10;6.28;;;5.55;;
24483;SDS011;12643;51.620;7.548;2023-07-09T07:06:38;9.00;;;5.60;;
24483;SDS011;12643;51.620;7.548;2023-07-09T07:09:06;7.35;;;6.15;;
24483;SDS011;12643;51.620;7.548;2023-07-09T07:11:34;8.88;;;5.78;;
24483;SDS011;12643;51.620;7.548;2023-07-09T07:14:01;8.73;;;5.47;;
24483;SDS011;12643;51.620;7.548;2023-07-09T07:16:29;8.65;;;5.45;;
24483;SDS011;12643;51.620;7.548;2023-07-09T07:18:57;9.68;;;6.05;;
24483;SDS011;12643;51.620;7.548;2023-07-09T07:21:26;7.93;;;5.82;;
24483;SDS011;12643;51.620;7.548;2023-07-09T07:23:54;6.57;;;5.45;;
24483;SDS011;12643;51.620;7.548;2023-07-09T07:26:21;8.00;;;6.35;;
24483;SDS011;12643;51.620;7.548;2023-07-09T07:28:49;10.48;;;6.20;;
24483;SDS011;12643;51.620;7.548;2023-07-09T07:31:18;9.52;;;5.72;;
24483;SDS011;12643;51.620;7.548;2023-07-09T07:33:46;10.30;;;5.95;;
24483;SDS011;12643;51.620;7.548;2023-07-09T07:36:13;9.13;;;6.45;;
24483;SDS011;12643;51.620;7.548;2023-07-09T07:38:42;10.45;;;6.68;;
24483;SDS011;12643;51.620;7.548;2023-07-09T07:41:10;8.85;;;6.20;;
24483;SDS011;12643;51.620;7.548;2023-07-09T07:43:38;9.93;;;6.40;;
24483;SDS011;12643;51.620;7.548;2023-07-09T07:46:06;8.85;;;5.47;;
24483;SDS011;12643;51.620;7.548;2023-07-09T07:48:34;9.05;;;6.40;;
24483;SDS011;12643;51.620;7.548;2023-07-09T07:51:02;8.02;;;6.13;;
24483;SDS011;12643;51.620;7.548;2023-07-09T07:53:30;8.30;;;6.30;;
24483;SDS011;12643;51.620;7.548;2023-07-09T07:56:00;12.30;;;7.38;;
24483;SDS011;12643;51.620;7.548;2023-07-09T07:58:28;9.73;;;7.00;;
24483;SDS011;12643;51.620;7.548;2023-07-09T08:00:57;8.60;;;6.55;;
24483;SDS011;12643;51.620;7.548;2023-07-09T08:03:26;10.02;;;6.25;;
24483;SDS011;12643;51.620;7.548;2023-07-09T08:05:53;9.13;;;6.25;;
24483;SDS011;12643;51.620;7.548;2023-07-09T08:08:21;9.38;;;6.43;;
24483;SDS011;12643;51.620;7.548;2023-07-09T08:10:49;9.07;;;6.15;;
24483;SDS011;12643;51.620;7.548;2023-07-09T08:13:19;12.15;;;6.68;;
24483;SDS011;12643;51.620;7.548;2023-07-09T08:15:46;8.00;;;6.28;;
24483;SDS011;12643;51.620;7.548;2023-07-09T08:18:14;10.00;;;6.65;;
24483;SDS011;12643;51.620;7.548;2023-07-09T08:20:42;11.38;;;6.65;;
24483;SDS011;12643;51.620;7.548;2023-07-09T08:23:11;9.80;;;6.05;;
24483;SDS011;12643;51.620;7.548;2023-07-09T08:25:38;8.32;;;6.38;;
24483;SDS011;12643;51.620;7.548;2023-07-09T08:28:06;8.27;;;6.75;;
24483;SDS011;12643;51.620;7.548;2023-07-09T08:30:35;8.18;;;6.68;;
24483;SDS011;12643;51.620;7.548;2023-07-09T08:33:03;10.90;;;6.68;;
24483;SDS011;12643;51.620;7.548;2023-07-09T08:35:31;9.07;;;6.53;;
24483;SDS011;12643;51.620;7.548;2023-07-09T08:37:59;8.10;;;6.38;;
24483;SDS011;12643;51.620;7.548;2023-07-09T08:40:27;8.40;;;6.68;;
24483;SDS011;12643;51.620;7.548;2023-07-09T08:42:56;11.73;;;7.05;;
24483;SDS011;12643;51.620;7.548;2023-07-09T08:45:33;8.45;;;6.68;;
24483;SDS011;12643;51.620;7.548;2023-07-09T08:48:12;9.18;;;6.15;;
24483;SDS011;12643;51.620;7.548;2023-07-09T08:50:47;8.43;;;6.50;;
24483;SDS011;12643;51.620;7.548;2023-07-09T08:53:19;11.38;;;6.78;;
24483;SDS011;12643;51.620;7.548;2023-07-09T08:55:50;10.77;;;6.97;;
24483;SDS011;12643;51.620;7.548;2023-07-09T08:58:21;7.95;;;6.40;;
24483;SDS011;12643;51.620;7.548;2023-07-09T09:00:54;10.15;;;7.15;;
24483;SDS011;12643;51.620;7.548;2023-07-09T09:03:30;13.25;;;7.55;;
24483;SDS011;12643;51.620;7.548;2023-07-09T09:06:08;9.07;;;6.93;;
24483;SDS011;12643;51.620;7.548;2023-07-09T09:08:39;12.38;;;7.28;;
24483;SDS011;12643;51.620;7.548;2023-07-09T09:11:11;9.73;;;6.72;;
24483;SDS011;12643;51.620;7.548;2023-07-09T09:13:42;11.07;;;7.20;;
24483;SDS011;12643;51.620;7.548;2023-07-09T09:16:13;11.05;;;6.32;;
24483;SDS011;12643;51.620;7.548;2023-07-09T09:18:48;12.60;;;6.53;;
24483;SDS011;12643;51.620;7.548;2023-07-09T09:21:21;10.65;;;6.80;;
24483;SDS011;12643;51.620;7.548;2023-07-09T09:23:52;8.73;;;6.20;;
24483;SDS011;12643;51.620;7.548;2023-07-09T09:26:24;10.13;;;6.70;;
24483;SDS011;12643;51.620;7.548;2023-07-09T09:28:55;10.98;;;7.03;;
24483;SDS011;12643;51.620;7.548;2023-07-09T09:31:25;14.27;;;7.38;;
24483;SDS011;12643;51.620;7.548;2023-07-09T09:33:55;11.05;;;6.68;;
24483;SDS011;12643;51.620;7.548;2023-07-09T09:36:25;10.43;;;7.03;;
24483;SDS011;12643;51.620;7.548;2023-07-09T09:38:53;9.32;;;6.78;;
24483;SDS011;12643;51.620;7.548;2023-07-09T09:41:21;11.27;;;7.57;;
24483;SDS011;12643;51.620;7.548;2023-07-09T09:43:52;8.80;;;6.88;;
24483;SDS011;12643;51.620;7.548;2023-07-09T09:46:21;11.40;;;7.15;;
24483;SDS011;12643;51.620;7.548;2023-07-09T09:48:53;9.32;;;6.95;;
24483;SDS011;12643;51.620;7.548;2023-07-09T09:51:22;11.20;;;7.15;;
24483;SDS011;12643;51.620;7.548;2023-07-09T09:53:51;15.52;;;6.85;;
24483;SDS011;12643;51.620;7.548;2023-07-09T09:56:27;11.02;;;7.28;;
24483;SDS011;12643;51.620;7.548;2023-07-09T09:58:57;10.13;;;7.30;;
24483;SDS011;12643;51.620;7.548;2023-07-09T10:01:27;8.57;;;6.53;;
24483;SDS011;12643;51.620;7.548;2023-07-09T10:03:59;10.82;;;7.07;;
24483;SDS011;12643;51.620;7.548;2023-07-09T10:06:33;9.77;;;6.65;;
24483;SDS011;12643;51.620;7.548;2023-07-09T10:09:03;11.50;;;7.40;;
24483;SDS011;12643;51.620;7.548;2023-07-09T10:11:41;9.20;;;7.20;;
24483;SDS011;12643;51.620;7.548;2023-07-09T10:14:18;8.02;;;6.45;;
24483;SDS011;12643;51.620;7.548;2023-07-09T10:16:53;10.68;;;7.32;;
24483;SDS011;12643;51.620;7.548;2023-07-09T10:19:31;9.15;;;6.80;;
24483;SDS011;12643;51.620;7.548;2023-07-09T10:22:05;7.32;;;6.35;;
24483;SDS011;12643;51.620;7.548;2023-07-09T10:24:39;11.63;;;6.38;;
24483;SDS011;12643;51.620;7.548;2023-07-09T10:27:15;11.05;;;6.38;;
24483;SDS011;12643;51.620;7.548;2023-07-09T10:29:50;12.25;;;6.45;;
24483;SDS011;12643;51.620;7.548;2023-07-09T10:32:42;10.40;;;7.03;;
24483;SDS011;12643;51.620;7.548;2023-07-09T10:35:21;10.70;;;6.45;;
24483;SDS011;12643;51.620;7.548;2023-07-09T10:37:56;8.73;;;5.78;;
24483;SDS011;12643;51.620;7.548;2023-07-09T10:40:36;10.65;;;6.28;;
24483;SDS011;12643;51.620;7.548;2023-07-09T10:43:10;9.20;;;6.32;;
24483;SDS011;12643;51.620;7.548;2023-07-09T10:45:44;8.68;;;6.05;;
24483;SDS011;12643;51.620;7.548;2023-07-09T10:48:16;8.35;;;6.00;;
24483;SDS011;12643;51.620;7.548;2023-07-09T10:50:48;8.32;;;5.90;;
24483;SDS011;12643;51.620;7.548;2023-07-09T10:53:23;9.10;;;6.10;;
24483;SDS011;12643;51.620;7.548;2023-07-09T10:55:57;9.45;;;6.25;;
24483;SDS011;12643;51.620;7.548;2023-07-09T10:58:30;7.30;;;5.93;;
24483;SDS011;12643;51.620;7.548;2023-07-09T11:01:02;11.77;;;6.18;;
24483;SDS011;12643;51.620;7.548;2023-07-09T11:03:35;8.15;;;5.82;;
24483;SDS011;12643;51.620;7.548;2023-07-09T11:06:13;8.60;;;5.72;;
24483;SDS011;12643;51.620;7.548;2023-07-09T11:08:45;8.48;;;5.78;;
24483;SDS011;12643;51.620;7.548;2023-07-09T11:11:19;7.63;;;5.60;;
24483;SDS011;12643;51.620;7.548;2023-07-09T11:13:55;7.35;;;5.68;;
24483;SDS011;12643;51.620;7.548;2023-07-09T11:16:27;10.48;;;6.32;;
24483;SDS011;12643;51.620;7.548;2023-07-09T11:18:58;8.13;;;5.75;;
24483;SDS011;12643;51.620;7.548;2023-07-09T11:21:29;11.77;;;6.30;;
24483;SDS011;12643;51.620;7.548;2023-07-09T11:23:58;6.63;;;5.57;;
24483;SDS011;12643;51.620;7.548;2023-07-09T11:26:27;8.65;;;5.88;;
24483;SDS011;12643;51.620;7.548;2023-07-09T11:29:11;11.52;;;6.35;;
24483;SDS011;12643;51.620;7.548;2023-07-09T11:31:43;9.20;;;5.30;;
24483;SDS011;12643;51.620;7.548;2023-07-09T11:34:15;10.73;;;6.63;;
24483;SDS011;12643;51.620;7.548;2023-07-09T11:36:50;8.65;;;5.50;;
24483;SDS011;12643;51.620;7.548;2023-07-09T11:39:27;7.35;;;5.70;;
24483;SDS011;12643;51.620;7.548;2023-07-09T11:41:57;10.10;;;5.65;;
24483;SDS011;12643;51.620;7.548;2023-07-09T11:44:26;9.23;;;6.00;;
24483;SDS011;12643;51.620;7.548;2023-07-09T11:49:49;7.35;;;5.85;;
24483;SDS011;12643;51.620;7.548;2023-07-09T11:52:22;6.82;;;4.97;;
24483;SDS011;12643;51.620;7.548;2023-07-09T11:54:54;10.57;;;6.10;;
24483;SDS011;12643;51.620;7.548;2023-07-09T11:57:22;8.90;;;5.95;;
24483;SDS011;12643;51.620;7.548;2023-07-09T11:59:50;7.00;;;4.75;;
24483;SDS011;12643;51.620;7.548;2023-07-09T12:02:18;10.75;;;5.53;;
24483;SDS011;12643;51.620;7.548;2023-07-09T12:04:48;7.50;;;5.45;;
24483;SDS011;12643;51.620;7.548;2023-07-09T12:07:20;10.88;;;5.53;;
24483;SDS011;12643;51.620;7.548;2023-07-09T12:09:50;8.90;;;5.63;;
24483;SDS011;12643;51.620;7.548;2023-07-09T12:12:20;7.63;;;5.25;;
24483;SDS011;12643;51.620;7.548;2023-07-09T12:14:49;6.93;;;5.10;;
24483;SDS011;12643;51.620;7.548;2023-07-09T12:17:18;9.45;;;5.45;;
24483;SDS011;12643;51.620;7.548;2023-07-09T12:19:51;6.38;;;4.72;;
24483;SDS011;12643;51.620;7.548;2023-07-09T12:22:19;6.47;;;4.97;;
24483;SDS011;12643;51.620;7.548;2023-07-09T12:24:49;8.23;;;5.10;;
24483;SDS011;12643;51.620;7.548;2023-07-09T12:27:20;8.32;;;5.10;;
24483;SDS011;12643;51.620;7.548;2023-07-09T12:32:18;7.57;;;5.30;;
24483;SDS011;12643;51.620;7.548;2023-07-09T12:34:49;9.02;;;5.35;;
24483;SDS011;12643;51.620;7.548;2023-07-09T12:37:19;6.53;;;5.28;;
24483;SDS011;12643;51.620;7.548;2023-07-09T12:39:50;9.47;;;5.70;;
24483;SDS011;12643;51.620;7.548;2023-07-09T12:42:21;8.35;;;5.35;;
24483;SDS011;12643;51.620;7.548;2023-07-09T12:44:56;12.88;;;5.43;;
24483;SDS011;12643;51.620;7.548;2023-07-09T12:47:24;7.60;;;4.82;;
24483;SDS011;12643;51.620;7.548;2023-07-09T12:49:59;7.47;;;5.25;;
24483;SDS011;12643;51.620;7.548;2023-07-09T12:52:28;6.43;;;5.10;;
24483;SDS011;12643;51.620;7.548;2023-07-09T12:54:58;12.15;;;5.47;;
24483;SDS011;12643;51.620;7.548;2023-07-09T12:57:27;11.75;;;5.07;;
24483;SDS011;12643;51.620;7.548;2023-07-09T12:59:56;7.53;;;5.15;;
24483;SDS011;12643;51.620;7.548;2023-07-09T13:02:24;7.63;;;4.95;;
24483;SDS011;12643;51.620;7.548;2023-07-09T13:04:59;10.63;;;5.10;;
24483;SDS011;12643;51.620;7.548;2023-07-09T13:07:30;7.57;;;4.97;;
24483;SDS011;12643;51.620;7.548;2023-07-09T13:10:05;6.32;;;5.05;;
24483;SDS011;12643;51.620;7.548;2023-07-09T13:12:41;7.80;;;5.45;;
24483;SDS011;12643;51.620;7.548;2023-07-09T13:15:21;12.05;;;5.40;;
24483;SDS011;12643;51.620;7.548;2023-07-09T13:17:58;9.32;;;5.43;;
24483;SDS011;12643;51.620;7.548;2023-07-09T13:20:28;8.00;;;5.28;;
24483;SDS011;12643;51.620;7.548;2023-07-09T13:22:57;8.43;;;5.53;;
24483;SDS011;12643;51.620;7.548;2023-07-09T13:25:26;5.80;;;4.65;;
24483;SDS011;12643;51.620;7.548;2023-07-09T13:27:54;7.18;;;4.90;;
24483;SDS011;12643;51.620;7.548;2023-07-09T13:30:22;5.85;;;4.70;;
24483;SDS011;12643;51.620;7.548;2023-07-09T13:32:50;5.53;;;4.70;;
24483;SDS011;12643;51.620;7.548;2023-07-09T13:35:18;8.45;;;4.55;;
24483;SDS011;12643;51.620;7.548;2023-07-09T13:37:46;9.07;;;5.18;;
24483;SDS011;12643;51.620;7.548;2023-07-09T13:40:15;6.78;;;5.10;;
24483;SDS011;12643;51.620;7.548;2023-07-09T13:42:48;7.00;;;4.00;;
24483;SDS011;12643;51.620;7.548;2023-07-09T13:45:17;6.78;;;4.65;;
24483;SDS011;12643;51.620;7.548;2023-07-09T13:47:46;6.38;;;4.60;;
24483;SDS011;12643;51.620;7.548;2023-07-09T13:50:14;8.38;;;4.75;;
24483;SDS011;12643;51.620;7.548;2023-07-09T13:52:42;5.70;;;4.75;;
24483;SDS011;12643;51.620;7.548;2023-07-09T13:55:21;5.60;;;4.17;;
24483;SDS011;12643;51.620;7.548;2023-07-09T13:57:51;8.55;;;4.53;;
24483;SDS011;12643;51.620;7.548;2023-07-09T14:00:19;6.53;;;4.10;;
24483;SDS011;12643;51.620;7.548;2023-07-09T14:02:47;7.00;;;3.92;;
24483;SDS011;12643;51.620;7.548;2023-07-09T14:05:16;8.88;;;4.57;;
24483;SDS011;12643;51.620;7.548;2023-07-09T14:07:44;5.53;;;4.45;;
24483;SDS011;12643;51.620;7.548;2023-07-09T14:10:13;6.30;;;4.15;;
24483;SDS011;12643;51.620;7.548;2023-07-09T14:12:43;9.05;;;4.45;;
24483;SDS011;12643;51.620;7.548;2023-07-09T14:15:15;7.45;;;4.55;;
24483;SDS011;12643;51.620;7.548;2023-07-09T14:17:45;5.97;;;4.32;;
24483;SDS011;12643;51.620;7.548;2023-07-09T14:20:14;5.72;;;4.25;;
24483;SDS011;12643;51.620;7.548;2023-07-09T14:22:43;7.80;;;4.03;;
24483;SDS011;12643;51.620;7.548;2023-07-09T14:25:17;7.18;;;4.28;;
24483;SDS011;12643;51.620;7.548;2023-07-09T14:27:48;7.40;;;3.95;;
24483;SDS011;12643;51.620;7.548;2023-07-09T14:30:21;5.57;;;3.72;;
24483;SDS011;12643;51.620;7.548;2023-07-09T14:32:50;6.05;;;4.25;;
24483;SDS011;12643;51.620;7.548;2023-07-09T14:35:19;6.78;;;4.30;;
24483;SDS011;12643;51.620;7.548;2023-07-09T14:37:49;4.18;;;3.78;;
24483;SDS011;12643;51.620;7.548;2023-07-09T14:40:19;6.05;;;3.92;;
24483;SDS011;12643;51.620;7.548;2023-07-09T14:42:49;3.92;;;3.35;;
24483;SDS011;12643;51.620;7.548;2023-07-09T14:45:19;8.38;;;3.85;;
24483;SDS011;12643;51.620;7.548;2023-07-09T14:47:49;5.13;;;3.95;;
24483;SDS011;12643;51.620;7.548;2023-07-09T14:50:17;4.85;;;4.00;;
24483;SDS011;12643;51.620;7.548;2023-07-09T14:52:46;4.13;;;3.58;;
24483;SDS011;12643;51.620;7.548;2023-07-09T14:55:15;5.00;;;4.50;;
24483;SDS011;12643;51.620;7.548;2023-07-09T14:57:44;4.85;;;4.00;;
24483;SDS011;12643;51.620;7.548;2023-07-09T15:00:13;7.18;;;4.30;;
24483;SDS011;12643;51.620;7.548;2023-07-09T15:02:43;5.22;;;3.95;;
24483;SDS011;12643;51.620;7.548;2023-07-09T15:07:41;4.43;;;3.80;;
24483;SDS011;12643;51.620;7.548;2023-07-09T15:10:14;6.30;;;4.28;;
24483;SDS011;12643;51.620;7.548;2023-07-09T15:12:43;6.35;;;4.20;;